sensor_id;sensor_type;location;lat;lon;timestamp;pressure;altitude;pressure_sealevel;temperature;humidity
80139;BME280;69467;59.842;17.604;2023-06-10T00:00:00;102531.28;;;8.88;47.62
80139;BME280;69467;59.842;17.604;2023-06-10T00:02:26;102532.09;;;8.75;47.89
80139;BME280;69467;59.842;17.604;2023-06-10T00:04:52;102540.06;;;8.70;48.05
80139;BME280;69467;59.842;17.604;2023-06-10T00:07:18;102529.72;;;8.59;48.16
80139;BME280;69467;59.842;17.604;2023-06-10T00:09:43;102532.19;;;8.47;48.43
80139;BME280;69467;59.842;17.604;2023-06-10T00:12:09;102538.63;;;8.39;48.71
80139;BME280;69467;59.842;17.604;2023-06-10T00:14:39;102527.28;;;8.35;48.76
80139;BME280;69467;59.842;17.604;2023-06-10T00:17:05;102535.25;;;8.37;48.76
80139;BME280;69467;59.842;17.604;2023-06-10T00:19:34;102528.56;;;8.40;48.97
80139;BME280;69467;59.842;17.604;2023-06-10T00:22:00;102535.31;;;8.44;47.70
80139;BME280;69467;59.842;17.604;2023-06-10T00:24:25;102537.66;;;8.47;48.40
80139;BME280;69467;59.842;17.604;2023-06-10T00:26:51;102538.50;;;8.47;48.27
80139;BME280;69467;59.842;17.604;2023-06-10T00:29:16;102541.41;;;8.46;48.66
80139;BME280;69467;59.842;17.604;2023-06-10T00:31:42;102547.06;;;8.44;48.87
80139;BME280;69467;59.842;17.604;2023-06-10T00:34:08;102542.81;;;8.35;48.77
80139;BME280;69467;59.842;17.604;2023-06-10T00:36:33;102547.41;;;8.28;49.24
80139;BME280;69467;59.842;17.604;2023-06-10T00:38:59;102550.50;;;8.18;49.30
80139;BME280;69467;59.842;17.604;2023-06-10T00:41:25;102551.28;;;8.05;49.77
80139;BME280;69467;59.842;17.604;2023-06-10T00:43:51;102566.06;;;7.89;49.64
80139;BME280;69467;59.842;17.604;2023-06-10T00:46:17;102555.88;;;7.76;49.97
80139;BME280;69467;59.842;17.604;2023-06-10T00:48:43;102560.88;;;7.72;50.56
80139;BME280;69467;59.842;17.604;2023-06-10T00:51:09;102552.44;;;7.67;50.69
80139;BME280;69467;59.842;17.604;2023-06-10T00:53:36;102563.78;;;7.64;50.94
80139;BME280;69467;59.842;17.604;2023-06-10T00:56:04;102560.19;;;7.64;51.13
80139;BME280;69467;59.842;17.604;2023-06-10T00:58:30;102564.59;;;7.65;50.80
80139;BME280;69467;59.842;17.604;2023-06-10T01:00:56;102560.75;;;7.59;49.87
80139;BME280;69467;59.842;17.604;2023-06-10T01:03:23;102562.88;;;7.57;51.29
80139;BME280;69467;59.842;17.604;2023-06-10T01:08:43;102563.44;;;7.52;51.16
80139;BME280;69467;59.842;17.604;2023-06-10T01:11:18;102569.22;;;7.43;51.24
80139;BME280;69467;59.842;17.604;2023-06-10T01:13:45;102570.59;;;7.32;51.37
80139;BME280;69467;59.842;17.604;2023-06-10T01:16:11;102567.97;;;7.23;51.50
80139;BME280;69467;59.842;17.604;2023-06-10T01:18:37;102576.31;;;7.15;52.08
80139;BME280;69467;59.842;17.604;2023-06-10T01:21:04;102578.09;;;7.08;52.01
80139;BME280;69467;59.842;17.604;2023-06-10T01:23:29;102570.31;;;7.05;52.26
80139;BME280;69467;59.842;17.604;2023-06-10T01:26:06;102569.00;;;7.01;52.53
80139;BME280;69467;59.842;17.604;2023-06-10T01:29:17;102571.47;;;6.96;53.09
80139;BME280;69467;59.842;17.604;2023-06-10T01:32:11;102562.00;;;6.91;53.20
80139;BME280;69467;59.842;17.604;2023-06-10T01:34:39;102575.31;;;6.86;52.95
80139;BME280;69467;59.842;17.604;2023-06-10T01:37:07;102575.53;;;6.85;53.30
80139;BME280;69467;59.842;17.604;2023-06-10T01:39:35;102574.03;;;6.82;53.59
80139;BME280;69467;59.842;17.604;2023-06-10T01:42:02;102569.41;;;6.83;53.86
80139;BME280;69467;59.842;17.604;2023-06-10T01:44:28;102565.88;;;6.82;54.06
80139;BME280;69467;59.842;17.604;2023-06-10T01:46:53;102562.09;;;6.83;53.80
80139;BME280;69467;59.842;17.604;2023-06-10T01:49:19;102575.06;;;6.81;53.83
80139;BME280;69467;59.842;17.604;2023-06-10T01:51:44;102578.81;;;6.80;53.47
80139;BME280;69467;59.842;17.604;2023-06-10T01:54:10;102580.72;;;6.80;54.20
80139;BME280;69467;59.842;17.604;2023-06-10T01:56:35;102577.53;;;6.76;54.14
80139;BME280;69467;59.842;17.604;2023-06-10T01:59:01;102589.91;;;6.79;53.71
80139;BME280;69467;59.842;17.604;2023-06-10T02:01:26;102581.94;;;6.77;53.95
80139;BME280;69467;59.842;17.604;2023-06-10T02:03:52;102589.84;;;6.72;54.68
80139;BME280;69467;59.842;17.604;2023-06-10T02:06:17;102579.97;;;6.71;54.53
80139;BME280;69467;59.842;17.604;2023-06-10T02:08:43;102584.13;;;6.67;54.94
80139;BME280;69467;59.842;17.604;2023-06-10T02:11:08;102584.75;;;6.69;54.28
80139;BME280;69467;59.842;17.604;2023-06-10T02:13:34;102582.91;;;6.69;54.08
80139;BME280;69467;59.842;17.604;2023-06-10T02:16:00;102584.13;;;6.67;54.19
80139;BME280;69467;59.842;17.604;2023-06-10T02:18:26;102591.53;;;6.58;53.99
80139;BME280;69467;59.842;17.604;2023-06-10T02:20:52;102593.97;;;6.53;54.70
80139;BME280;69467;59.842;17.604;2023-06-10T02:23:17;102600.91;;;6.55;54.74
80139;BME280;69467;59.842;17.604;2023-06-10T02:25:43;102599.88;;;6.56;54.30
80139;BME280;69467;59.842;17.604;2023-06-10T02:28:08;102599.53;;;6.59;54.31
80139;BME280;69467;59.842;17.604;2023-06-10T02:30:34;102599.53;;;6.59;54.37
80139;BME280;69467;59.842;17.604;2023-06-10T02:32:59;102598.84;;;6.57;54.45
80139;BME280;69467;59.842;17.604;2023-06-10T02:35:26;102599.22;;;6.54;54.68
80139;BME280;69467;59.842;17.604;2023-06-10T02:37:51;102607.13;;;6.49;54.71
80139;BME280;69467;59.842;17.604;2023-06-10T02:40:17;102612.66;;;6.41;55.07
80139;BME280;69467;59.842;17.604;2023-06-10T02:42:42;102615.84;;;6.29;55.29
80139;BME280;69467;59.842;17.604;2023-06-10T02:45:08;102621.53;;;6.20;55.57
80139;BME280;69467;59.842;17.604;2023-06-10T02:47:33;102618.06;;;6.11;55.71
80139;BME280;69467;59.842;17.604;2023-06-10T02:49:58;102632.25;;;6.06;55.93
80139;BME280;69467;59.842;17.604;2023-06-10T02:52:24;102619.53;;;5.99;56.22
80139;BME280;69467;59.842;17.604;2023-06-10T02:54:50;102621.13;;;5.93;56.52
80139;BME280;69467;59.842;17.604;2023-06-10T02:57:16;102617.06;;;5.89;56.56
80139;BME280;69467;59.842;17.604;2023-06-10T02:59:41;102625.06;;;5.90;57.15
80139;BME280;69467;59.842;17.604;2023-06-10T03:02:07;102622.34;;;5.90;57.56
80139;BME280;69467;59.842;17.604;2023-06-10T03:04:32;102626.72;;;5.91;57.13
80139;BME280;69467;59.842;17.604;2023-06-10T03:06:58;102625.66;;;6.01;57.50
80139;BME280;69467;59.842;17.604;2023-06-10T03:09:25;102631.50;;;6.12;57.27
80139;BME280;69467;59.842;17.604;2023-06-10T03:11:51;102626.81;;;6.21;57.53
80139;BME280;69467;59.842;17.604;2023-06-10T03:14:16;102626.72;;;6.29;57.21
80139;BME280;69467;59.842;17.604;2023-06-10T03:16:42;102623.44;;;6.34;57.14
80139;BME280;69467;59.842;17.604;2023-06-10T03:19:08;102627.50;;;6.38;57.22
80139;BME280;69467;59.842;17.604;2023-06-10T03:21:34;102625.22;;;6.42;57.31
80139;BME280;69467;59.842;17.604;2023-06-10T03:24:00;102623.84;;;6.46;57.11
80139;BME280;69467;59.842;17.604;2023-06-10T03:26:26;102628.06;;;6.49;57.42
80139;BME280;69467;59.842;17.604;2023-06-10T03:28:52;102625.63;;;6.54;57.33
80139;BME280;69467;59.842;17.604;2023-06-10T03:31:18;102632.19;;;6.59;57.17
80139;BME280;69467;59.842;17.604;2023-06-10T03:33:43;102634.53;;;6.63;57.28
80139;BME280;69467;59.842;17.604;2023-06-10T03:36:09;102634.78;;;6.68;57.08
80139;BME280;69467;59.842;17.604;2023-06-10T03:38:35;102624.38;;;6.71;56.91
80139;BME280;69467;59.842;17.604;2023-06-10T03:41:00;102636.59;;;6.75;57.21
80139;BME280;69467;59.842;17.604;2023-06-10T03:43:26;102636.22;;;6.79;57.21
80139;BME280;69467;59.842;17.604;2023-06-10T03:45:52;102638.72;;;6.80;57.34
80139;BME280;69467;59.842;17.604;2023-06-10T03:48:18;102641.09;;;6.83;57.46
80139;BME280;69467;59.842;17.604;2023-06-10T03:50:44;102632.53;;;6.86;57.88
80139;BME280;69467;59.842;17.604;2023-06-10T03:53:09;102633.59;;;6.85;57.99
80139;BME280;69467;59.842;17.604;2023-06-10T03:55:34;102632.34;;;6.88;57.75
80139;BME280;69467;59.842;17.604;2023-06-10T03:58:01;102635.56;;;6.91;57.77
80139;BME280;69467;59.842;17.604;2023-06-10T04:00:26;102631.41;;;6.96;57.81
80139;BME280;69467;59.842;17.604;2023-06-10T04:02:52;102641.91;;;6.99;57.73
80139;BME280;69467;59.842;17.604;2023-06-10T04:05:18;102626.69;;;7.04;58.49
80139;BME280;69467;59.842;17.604;2023-06-10T04:07:46;102628.19;;;7.07;58.83
80139;BME280;69467;59.842;17.604;2023-06-10T04:10:13;102624.88;;;7.12;58.85
80139;BME280;69467;59.842;17.604;2023-06-10T04:12:39;102622.63;;;7.15;58.53
80139;BME280;69467;59.842;17.604;2023-06-10T04:15:05;102622.06;;;7.20;58.69
80139;BME280;69467;59.842;17.604;2023-06-10T04:17:31;102621.66;;;7.23;58.49
80139;BME280;69467;59.842;17.604;2023-06-10T04:19:57;102628.84;;;7.31;58.43
80139;BME280;69467;59.842;17.604;2023-06-10T04:22:23;102638.97;;;7.37;58.65
80139;BME280;69467;59.842;17.604;2023-06-10T04:24:48;102637.19;;;7.44;58.77
80139;BME280;69467;59.842;17.604;2023-06-10T04:27:14;102641.22;;;7.48;58.78
80139;BME280;69467;59.842;17.604;2023-06-10T04:29:40;102643.81;;;7.56;58.59
80139;BME280;69467;59.842;17.604;2023-06-10T04:32:06;102644.06;;;7.62;58.69
80139;BME280;69467;59.842;17.604;2023-06-10T04:34:32;102639.53;;;7.69;57.70
80139;BME280;69467;59.842;17.604;2023-06-10T04:36:58;102643.16;;;7.76;58.58
80139;BME280;69467;59.842;17.604;2023-06-10T04:39:23;102649.72;;;7.82;58.75
80139;BME280;69467;59.842;17.604;2023-06-10T04:41:49;102653.94;;;7.84;58.56
80139;BME280;69467;59.842;17.604;2023-06-10T04:44:14;102658.81;;;7.89;58.86
80139;BME280;69467;59.842;17.604;2023-06-10T04:46:40;102659.91;;;7.95;58.84
80139;BME280;69467;59.842;17.604;2023-06-10T04:49:05;102661.00;;;8.00;58.56
80139;BME280;69467;59.842;17.604;2023-06-10T04:51:31;102665.25;;;8.10;58.90
80139;BME280;69467;59.842;17.604;2023-06-10T04:53:59;102657.16;;;8.16;58.80
80139;BME280;69467;59.842;17.604;2023-06-10T04:56:29;102655.69;;;8.20;59.28
80139;BME280;69467;59.842;17.604;2023-06-10T04:58:58;102661.22;;;8.27;59.01
80139;BME280;69467;59.842;17.604;2023-06-10T05:01:24;102663.78;;;8.35;58.95
80139;BME280;69467;59.842;17.604;2023-06-10T05:03:49;102665.50;;;8.43;58.53
80139;BME280;69467;59.842;17.604;2023-06-10T05:06:15;102657.19;;;8.51;58.73
80139;BME280;69467;59.842;17.604;2023-06-10T05:08:40;102662.50;;;8.60;58.53
80139;BME280;69467;59.842;17.604;2023-06-10T05:11:06;102658.56;;;8.69;57.96
80139;BME280;69467;59.842;17.604;2023-06-10T05:13:31;102656.31;;;8.79;57.98
80139;BME280;69467;59.842;17.604;2023-06-10T05:15:57;102657.81;;;8.89;57.74
80139;BME280;69467;59.842;17.604;2023-06-10T05:18:23;102654.91;;;8.97;57.68
80139;BME280;69467;59.842;17.604;2023-06-10T05:20:48;102650.56;;;9.09;57.32
80139;BME280;69467;59.842;17.604;2023-06-10T05:23:14;102654.59;;;9.20;57.14
80139;BME280;69467;59.842;17.604;2023-06-10T05:25:39;102652.53;;;9.29;57.34
80139;BME280;69467;59.842;17.604;2023-06-10T05:28:06;102645.63;;;9.40;57.11
80139;BME280;69467;59.842;17.604;2023-06-10T05:30:37;102650.69;;;9.49;56.79
80139;BME280;69467;59.842;17.604;2023-06-10T05:33:04;102653.84;;;9.60;56.27
80139;BME280;69467;59.842;17.604;2023-06-10T05:35:29;102649.84;;;9.69;55.94
80139;BME280;69467;59.842;17.604;2023-06-10T05:37:55;102649.44;;;9.79;55.67
80139;BME280;69467;59.842;17.604;2023-06-10T05:40:20;102655.16;;;9.91;55.77
80139;BME280;69467;59.842;17.604;2023-06-10T05:42:46;102653.03;;;9.99;55.06
80139;BME280;69467;59.842;17.604;2023-06-10T05:45:11;102661.47;;;10.11;54.62
80139;BME280;69467;59.842;17.604;2023-06-10T05:47:37;102657.44;;;10.21;53.67
80139;BME280;69467;59.842;17.604;2023-06-10T05:50:04;102660.81;;;10.29;52.80
80139;BME280;69467;59.842;17.604;2023-06-10T05:52:33;102668.22;;;10.42;52.98
80139;BME280;69467;59.842;17.604;2023-06-10T05:54:58;102663.13;;;10.53;52.99
80139;BME280;69467;59.842;17.604;2023-06-10T05:57:25;102665.19;;;10.64;52.82
80139;BME280;69467;59.842;17.604;2023-06-10T05:59:50;102667.31;;;10.75;52.91
80139;BME280;69467;59.842;17.604;2023-06-10T06:02:16;102663.47;;;10.83;52.18
80139;BME280;69467;59.842;17.604;2023-06-10T06:04:41;102664.72;;;10.94;51.77
80139;BME280;69467;59.842;17.604;2023-06-10T06:07:07;102664.03;;;10.99;51.72
80139;BME280;69467;59.842;17.604;2023-06-10T06:09:32;102666.94;;;11.10;52.01
80139;BME280;69467;59.842;17.604;2023-06-10T06:11:57;102667.53;;;11.19;51.47
80139;BME280;69467;59.842;17.604;2023-06-10T06:14:23;102665.16;;;11.30;51.33
80139;BME280;69467;59.842;17.604;2023-06-10T06:16:48;102660.88;;;11.40;50.63
80139;BME280;69467;59.842;17.604;2023-06-10T06:19:14;102664.84;;;11.51;50.52
80139;BME280;69467;59.842;17.604;2023-06-10T06:21:39;102666.03;;;11.62;50.27
80139;BME280;69467;59.842;17.604;2023-06-10T06:24:05;102659.22;;;11.71;50.12
80139;BME280;69467;59.842;17.604;2023-06-10T06:26:30;102654.53;;;11.79;49.46
80139;BME280;69467;59.842;17.604;2023-06-10T06:28:56;102655.31;;;11.86;49.43
80139;BME280;69467;59.842;17.604;2023-06-10T06:31:21;102652.72;;;11.98;48.90
80139;BME280;69467;59.842;17.604;2023-06-10T06:33:47;102659.84;;;12.05;48.83
80139;BME280;69467;59.842;17.604;2023-06-10T06:36:12;102660.56;;;12.19;48.54
80139;BME280;69467;59.842;17.604;2023-06-10T06:38:37;102653.72;;;12.29;48.58
80139;BME280;69467;59.842;17.604;2023-06-10T06:41:03;102657.84;;;12.38;47.68
80139;BME280;69467;59.842;17.604;2023-06-10T06:43:31;102662.19;;;12.46;47.66
80139;BME280;69467;59.842;17.604;2023-06-10T06:45:57;102657.66;;;12.58;47.53
80139;BME280;69467;59.842;17.604;2023-06-10T06:48:23;102665.59;;;12.66;47.13
80139;BME280;69467;59.842;17.604;2023-06-10T06:50:48;102673.78;;;12.73;46.77
80139;BME280;69467;59.842;17.604;2023-06-10T06:53:14;102666.66;;;12.84;46.15
80139;BME280;69467;59.842;17.604;2023-06-10T06:55:40;102673.28;;;12.95;46.07
80139;BME280;69467;59.842;17.604;2023-06-10T06:58:05;102666.81;;;13.08;45.78
80139;BME280;69467;59.842;17.604;2023-06-10T07:00:31;102669.22;;;13.16;45.25
80139;BME280;69467;59.842;17.604;2023-06-10T07:02:57;102671.41;;;13.26;44.94
80139;BME280;69467;59.842;17.604;2023-06-10T07:05:23;102675.31;;;13.36;45.06
80139;BME280;69467;59.842;17.604;2023-06-10T07:07:48;102667.81;;;13.44;44.74
80139;BME280;69467;59.842;17.604;2023-06-10T07:10:19;102669.78;;;13.55;44.44
80139;BME280;69467;59.842;17.604;2023-06-10T07:12:47;102674.47;;;13.66;43.87
80139;BME280;69467;59.842;17.604;2023-06-10T07:15:12;102667.56;;;13.76;43.84
80139;BME280;69467;59.842;17.604;2023-06-10T07:17:38;102669.75;;;13.85;42.80
80139;BME280;69467;59.842;17.604;2023-06-10T07:20:03;102666.03;;;14.04;45.87
80139;BME280;69467;59.842;17.604;2023-06-10T07:22:29;102674.47;;;14.56;48.48
80139;BME280;69467;59.842;17.604;2023-06-10T07:24:54;102669.78;;;15.21;46.49
80139;BME280;69467;59.842;17.604;2023-06-10T07:27:20;102673.06;;;15.64;45.52
80139;BME280;69467;59.842;17.604;2023-06-10T07:29:46;102676.25;;;16.02;45.08
80139;BME280;69467;59.842;17.604;2023-06-10T07:32:11;102664.75;;;16.27;42.01
80139;BME280;69467;59.842;17.604;2023-06-10T07:34:36;102663.97;;;16.49;42.66
80139;BME280;69467;59.842;17.604;2023-06-10T07:37:02;102662.25;;;16.65;40.69
80139;BME280;69467;59.842;17.604;2023-06-10T07:39:27;102659.75;;;16.63;41.55
80139;BME280;69467;59.842;17.604;2023-06-10T07:41:53;102659.31;;;16.94;42.44
80139;BME280;69467;59.842;17.604;2023-06-10T07:44:19;102662.25;;;17.31;41.25
80139;BME280;69467;59.842;17.604;2023-06-10T07:46:44;102665.44;;;17.45;38.79
80139;BME280;69467;59.842;17.604;2023-06-10T07:49:10;102659.84;;;17.40;37.27
80139;BME280;69467;59.842;17.604;2023-06-10T07:51:35;102671.44;;;17.37;37.99
80139;BME280;69467;59.842;17.604;2023-06-10T07:54:01;102665.03;;;17.59;40.48
80139;BME280;69467;59.842;17.604;2023-06-10T07:56:27;102661.41;;;17.85;38.39
80139;BME280;69467;59.842;17.604;2023-06-10T07:58:52;102667.88;;;17.96;37.92
80139;BME280;69467;59.842;17.604;2023-06-10T08:01:17;102672.97;;;17.77;34.41
80139;BME280;69467;59.842;17.604;2023-06-10T08:03:43;102664.91;;;17.76;37.49
80139;BME280;69467;59.842;17.604;2023-06-10T08:06:08;102667.09;;;18.01;35.87
80139;BME280;69467;59.842;17.604;2023-06-10T08:08:36;102668.50;;;18.03;34.98
80139;BME280;69467;59.842;17.604;2023-06-10T08:11:07;102661.44;;;18.23;35.17
80139;BME280;69467;59.842;17.604;2023-06-10T08:13:32;102663.75;;;18.37;33.14
80139;BME280;69467;59.842;17.604;2023-06-10T08:15:58;102669.34;;;18.47;33.21
80139;BME280;69467;59.842;17.604;2023-06-10T08:18:23;102672.38;;;18.45;32.77
80139;BME280;69467;59.842;17.604;2023-06-10T08:20:48;102666.78;;;18.35;32.70
80139;BME280;69467;59.842;17.604;2023-06-10T08:23:14;102669.25;;;18.31;32.17
80139;BME280;69467;59.842;17.604;2023-06-10T08:25:39;102674.38;;;18.12;32.84
80139;BME280;69467;59.842;17.604;2023-06-10T08:28:05;102673.31;;;18.18;32.92
80139;BME280;69467;59.842;17.604;2023-06-10T08:30:30;102668.31;;;18.15;33.73
80139;BME280;69467;59.842;17.604;2023-06-10T08:32:55;102668.66;;;18.24;35.33
80139;BME280;69467;59.842;17.604;2023-06-10T08:35:21;102673.53;;;18.49;33.67
80139;BME280;69467;59.842;17.604;2023-06-10T08:37:47;102672.75;;;18.59;33.78
80139;BME280;69467;59.842;17.604;2023-06-10T08:40:12;102665.28;;;18.60;32.94
80139;BME280;69467;59.842;17.604;2023-06-10T08:43:16;102671.97;;;18.69;31.25
80139;BME280;69467;59.842;17.604;2023-06-10T08:45:30;102665.94;;;18.82;31.60
80139;BME280;69467;59.842;17.604;2023-06-10T08:48:04;102666.56;;;18.95;31.48
80139;BME280;69467;59.842;17.604;2023-06-10T08:50:37;102665.75;;;18.99;31.36
80139;BME280;69467;59.842;17.604;2023-06-10T08:53:06;102666.13;;;19.24;32.70
80139;BME280;69467;59.842;17.604;2023-06-10T08:55:34;102661.97;;;19.42;31.02
80139;BME280;69467;59.842;17.604;2023-06-10T08:58:01;102651.19;;;19.61;30.52
80139;BME280;69467;59.842;17.604;2023-06-10T09:00:28;102657.88;;;19.81;30.54
80139;BME280;69467;59.842;17.604;2023-06-10T09:02:57;102647.03;;;19.94;29.85
80139;BME280;69467;59.842;17.604;2023-06-10T09:05:23;102645.91;;;20.06;29.86
80139;BME280;69467;59.842;17.604;2023-06-10T09:07:49;102646.19;;;20.15;29.62
80139;BME280;69467;59.842;17.604;2023-06-10T09:10:17;102648.13;;;20.24;29.33
80139;BME280;69467;59.842;17.604;2023-06-10T09:12:42;102655.41;;;19.89;28.93
80139;BME280;69467;59.842;17.604;2023-06-10T09:15:08;102648.44;;;19.92;29.36
80139;BME280;69467;59.842;17.604;2023-06-10T09:17:33;102648.72;;;19.95;28.99
80139;BME280;69467;59.842;17.604;2023-06-10T09:20:01;102643.91;;;19.39;29.85
80139;BME280;69467;59.842;17.604;2023-06-10T09:22:28;102643.97;;;19.96;29.54
80139;BME280;69467;59.842;17.604;2023-06-10T09:25:06;102643.91;;;20.32;29.62
80139;BME280;69467;59.842;17.604;2023-06-10T09:27:51;102632.78;;;20.42;28.68
80139;BME280;69467;59.842;17.604;2023-06-10T09:30:29;102633.00;;;20.72;28.75
80139;BME280;69467;59.842;17.604;2023-06-10T09:32:56;102640.38;;;20.97;27.98
80139;BME280;69467;59.842;17.604;2023-06-10T09:35:26;102635.88;;;21.12;27.93
80139;BME280;69467;59.842;17.604;2023-06-10T09:37:57;102638.03;;;21.25;27.40
80139;BME280;69467;59.842;17.604;2023-06-10T09:40:23;102633.47;;;21.34;27.28
80139;BME280;69467;59.842;17.604;2023-06-10T09:42:59;102628.34;;;21.57;26.70
80139;BME280;69467;59.842;17.604;2023-06-10T09:45:30;102628.63;;;21.11;26.93
80139;BME280;69467;59.842;17.604;2023-06-10T09:47:56;102628.38;;;21.47;26.44
80139;BME280;69467;59.842;17.604;2023-06-10T09:50:22;102618.38;;;21.40;26.62
80139;BME280;69467;59.842;17.604;2023-06-10T09:52:47;102627.81;;;21.05;26.79
80139;BME280;69467;59.842;17.604;2023-06-10T09:55:13;102631.63;;;21.19;27.39
80139;BME280;69467;59.842;17.604;2023-06-10T09:57:39;102629.84;;;20.94;26.36
80139;BME280;69467;59.842;17.604;2023-06-10T10:00:08;102623.38;;;21.04;27.61
80139;BME280;69467;59.842;17.604;2023-06-10T10:02:47;102626.09;;;21.59;26.48
80139;BME280;69467;59.842;17.604;2023-06-10T10:05:17;102615.53;;;21.51;25.25
80139;BME280;69467;59.842;17.604;2023-06-10T10:07:44;102614.84;;;21.30;26.80
80139;BME280;69467;59.842;17.604;2023-06-10T10:10:11;102627.28;;;21.03;26.71
80139;BME280;69467;59.842;17.604;2023-06-10T10:12:40;102619.38;;;21.20;26.26
80139;BME280;69467;59.842;17.604;2023-06-10T10:15:07;102623.59;;;21.07;25.94
80139;BME280;69467;59.842;17.604;2023-06-10T10:18:14;102629.81;;;20.99;27.18
80139;BME280;69467;59.842;17.604;2023-06-10T10:20:47;102620.22;;;21.55;27.00
80139;BME280;69467;59.842;17.604;2023-06-10T10:23:20;102612.38;;;21.97;25.74
80139;BME280;69467;59.842;17.604;2023-06-10T10:25:51;102613.13;;;22.32;26.88
80139;BME280;69467;59.842;17.604;2023-06-10T10:28:19;102615.19;;;22.51;25.01
80139;BME280;69467;59.842;17.604;2023-06-10T10:30:50;102602.13;;;22.17;25.54
80139;BME280;69467;59.842;17.604;2023-06-10T10:33:18;102603.19;;;22.21;25.04
80139;BME280;69467;59.842;17.604;2023-06-10T10:35:45;102600.63;;;22.25;25.28
80139;BME280;69467;59.842;17.604;2023-06-10T10:38:11;102600.13;;;22.47;24.58
80139;BME280;69467;59.842;17.604;2023-06-10T10:40:37;102601.34;;;22.35;25.05
80139;BME280;69467;59.842;17.604;2023-06-10T10:43:04;102608.09;;;22.83;24.26
80139;BME280;69467;59.842;17.604;2023-06-10T10:45:30;102599.16;;;23.00;23.89
80139;BME280;69467;59.842;17.604;2023-06-10T10:47:55;102598.66;;;23.17;24.96
80139;BME280;69467;59.842;17.604;2023-06-10T10:50:22;102594.16;;;23.21;23.91
80139;BME280;69467;59.842;17.604;2023-06-10T10:52:55;102601.09;;;22.61;25.08
80139;BME280;69467;59.842;17.604;2023-06-10T10:55:22;102602.06;;;22.22;25.60
80139;BME280;69467;59.842;17.604;2023-06-10T10:58:07;102599.25;;;22.51;25.87
80139;BME280;69467;59.842;17.604;2023-06-10T11:00:45;102601.16;;;22.56;24.67
80139;BME280;69467;59.842;17.604;2023-06-10T11:03:15;102606.81;;;22.51;24.39
80139;BME280;69467;59.842;17.604;2023-06-10T11:05:44;102595.72;;;22.46;24.70
80139;BME280;69467;59.842;17.604;2023-06-10T11:08:13;102603.06;;;22.61;24.24
80139;BME280;69467;59.842;17.604;2023-06-10T11:10:41;102596.22;;;22.91;24.46
80139;BME280;69467;59.842;17.604;2023-06-10T11:13:13;102599.53;;;23.12;24.78
80139;BME280;69467;59.842;17.604;2023-06-10T11:15:46;102596.00;;;23.07;24.96
80139;BME280;69467;59.842;17.604;2023-06-10T11:20:59;102592.25;;;23.69;24.11
80139;BME280;69467;59.842;17.604;2023-06-10T11:26:13;102585.63;;;23.64;23.75
80139;BME280;69467;59.842;17.604;2023-06-10T11:28:40;102586.97;;;23.67;24.22
80139;BME280;69467;59.842;17.604;2023-06-10T11:31:05;102599.16;;;23.57;24.23
80139;BME280;69467;59.842;17.604;2023-06-10T11:33:32;102586.78;;;23.44;24.32
80139;BME280;69467;59.842;17.604;2023-06-10T11:35:58;102592.00;;;23.84;24.00
80139;BME280;69467;59.842;17.604;2023-06-10T11:38:24;102579.72;;;24.13;23.90
80139;BME280;69467;59.842;17.604;2023-06-10T11:40:49;102576.81;;;24.46;23.54
80139;BME280;69467;59.842;17.604;2023-06-10T11:43:17;102582.50;;;23.99;23.68
80139;BME280;69467;59.842;17.604;2023-06-10T11:45:42;102575.69;;;24.19;23.63
80139;BME280;69467;59.842;17.604;2023-06-10T11:48:09;102575.69;;;24.19;23.52
80139;BME280;69467;59.842;17.604;2023-06-10T11:50:36;102570.59;;;24.21;23.12
80139;BME280;69467;59.842;17.604;2023-06-10T11:53:02;102590.88;;;23.33;23.91
80139;BME280;69467;59.842;17.604;2023-06-10T11:58:17;102573.31;;;22.70;24.46
80139;BME280;69467;59.842;17.604;2023-06-10T12:00:50;102570.63;;;23.03;24.51
80139;BME280;69467;59.842;17.604;2023-06-10T12:03:17;102564.16;;;23.60;23.78
80139;BME280;69467;59.842;17.604;2023-06-10T12:06:02;102562.50;;;24.06;22.88
80139;BME280;69467;59.842;17.604;2023-06-10T12:08:28;102551.72;;;24.27;22.85
80139;BME280;69467;59.842;17.604;2023-06-10T12:10:54;102562.09;;;24.40;23.16
80139;BME280;69467;59.842;17.604;2023-06-10T12:13:20;102555.53;;;24.59;22.94
80139;BME280;69467;59.842;17.604;2023-06-10T12:15:47;102555.72;;;24.76;22.83
80139;BME280;69467;59.842;17.604;2023-06-10T12:18:20;102556.53;;;24.91;22.38
80139;BME280;69467;59.842;17.604;2023-06-10T12:20:46;102561.63;;;23.91;23.49
80139;BME280;69467;59.842;17.604;2023-06-10T12:23:12;102550.31;;;23.83;23.19
80139;BME280;69467;59.842;17.604;2023-06-10T12:25:38;102547.78;;;24.14;23.56
80139;BME280;69467;59.842;17.604;2023-06-10T12:28:05;102544.97;;;24.42;23.24
80139;BME280;69467;59.842;17.604;2023-06-10T12:30:32;102539.44;;;24.65;22.88
80139;BME280;69467;59.842;17.604;2023-06-10T12:32:57;102536.78;;;24.32;22.39
80139;BME280;69467;59.842;17.604;2023-06-10T12:35:25;102530.16;;;24.00;22.98
80139;BME280;69467;59.842;17.604;2023-06-10T12:38:04;102538.88;;;24.12;23.61
80139;BME280;69467;59.842;17.604;2023-06-10T12:40:37;102547.69;;;23.58;23.59
80139;BME280;69467;59.842;17.604;2023-06-10T12:43:04;102535.22;;;22.79;24.52
80139;BME280;69467;59.842;17.604;2023-06-10T12:45:34;102538.06;;;22.93;24.78
80139;BME280;69467;59.842;17.604;2023-06-10T12:48:11;102536.81;;;23.24;24.97
80139;BME280;69467;59.842;17.604;2023-06-10T12:50:40;102522.13;;;22.94;24.30
80139;BME280;69467;59.842;17.604;2023-06-10T12:53:06;102529.25;;;22.86;25.02
80139;BME280;69467;59.842;17.604;2023-06-10T12:55:32;102527.28;;;23.06;24.58